ニース/コート・ダジュール の空港の天気 - METARとTAF

コート・ダジュール空港(ニース) ( LFMN / NCE ) - フランス ニース
飛行場実況気象(Metar)
観測時間04/25 04:00 CEST (04/25 02:00 UTC)
風向・風速東 2m/s
視程10km以上
天気現象
全天の8割程度の雲 雲底高度 340m
全天の8割程度の雲 雲底高度 490m
気温17℃
湿度88%
気圧1017hPa
METARLFMN 250200Z 09003KT 9999 BKN011 BKN016 17/15 Q1017 NOSIG
過去の天気等 Google飛行場航空写真 Wunderground天気予報

過去48時間のMETAR

飛行場予報(TAF)
発表時間: 4/24 22:00 CEST (4/24 20:00 UTC)
予報対象時間: 24日23時 CEST ~ 26日5時 CEST
風向・風速不定 2m/s
視程9,000m
全天の4割程度の雲 雲底高度 400m
25日1時 CEST ~ 25日10時 CEST に一時的に
視程3,000m
天気現象もや
全天の8割程度の雲 雲底高度 240m
25日10時 CEST ~ 25日12時 CEST に徐々に
風向・風速東 4m/s
25日16時 CEST ~ 25日18時 CEST に徐々に
風向・風速不定 2m/s
25日20時 CEST ~ 26日5時 CEST に一時的に
視程3,000m
天気現象もや
全天の8割程度の雲 雲底高度 240m
TAF LFMN 242000Z 2421/2603 VRB03KT 9000 SCT013
TEMPO 2423/2508 3000 BR BKN008
BECMG 2508/2510 10008KT
BECMG 2514/2516 VRB03KT
TEMPO 2518/2603 3000 BR BKN008